Back to Top

Current Local METAR Station Weather Reports...

Local METAR Reports

Local METAR Reports

 

EGCN - Doncaster Sheffield Airport, United Kingdom
Distance from station: E 20mi, 32km
Updated: Wed, 29-Jan-2020 1:20pm GMT
Partly Cloudy
Partly Cloudy
 Wind from WSW
Wind: WSW 21 mph , 33 km/h
Temperature: 8°C
Wind Chill: 3°C
Dew Point: 3°C
Humidity: 71%
Barometer: 1006 hPa
Clouds: Partly Cloudy
Visibility: 6 miles , 10 km
Cloud details: Partly Cloudy 884 m
2020/01/29 13:20 EGCN 291320Z 25018KT 9999 SCT029 08/03 Q1006
EGNM - Leeds Bradford International, United Kingdom
Distance from station: NNW 24mi, 39km
Updated: Wed, 29-Jan-2020 1:20pm GMT
Partly Cloudy
Partly Cloudy
 Wind from WSW
Wind: WSW 18 mph , 30 km/h
Temperature: 7°C
Wind Chill: 3°C
Dew Point: 3°C
Humidity: 76%
Barometer: 1003 hPa
Clouds: Partly Cloudy
Visibility: 6 miles , 10 km
Cloud details: Partly Cloudy 579 m
2020/01/29 13:20 EGNM 291320Z 24016KT 220V280 9999 SCT019 07/03 Q1003
 
EGCC - Manchester International, United Kingdom
Distance from station: WSW 35mi, 56km
Updated: Wed, 29-Jan-2020 1:20pm GMT
Clear
Clear
 Wind from WSW
Wind: WSW 15 mph , 24 km/h
Temperature: 8°C
Wind Chill: 4°C
Dew Point: 4°C
Humidity: 76%
Barometer: 1005 hPa
Clouds: Clear
Visibility: 6 miles , 10 km
2020/01/29 13:20 EGCC 291320Z AUTO 24013KT 9999 NCD 08/04 Q1005
EGXU - Linton-On-Ouse RAF, United Kingdom
Distance from station: NNE 37mi, 60km
Updated: Wed, 29-Jan-2020 12:50pm GMT
Mostly Cloudy
Mostly Cloudy
 Wind from W
Wind: W 18 mph , 30 km/h, Gust: 31 mph , 50 km/h
Temperature: 7°C
Wind Chill: 3°C
Dew Point: 4°C
Humidity: 81%
Barometer: 1003 hPa
Clouds: Mostly Cloudy
Visibility: 6 miles , 10 km
Cloud details: Partly Cloudy 701 m
Mostly Cloudy 5791 m
2020/01/29 12:50 EGXU 291250Z 26016G27KT 9999 SCT023 BKN190 07/04 Q1003 RMK WHT
 
EGXP - Scampton RAF, United Kingdom
Distance from station: ESE 41mi, 66km
Updated: Wed, 29-Jan-2020 12:50pm GMT
Partly Cloudy
Partly Cloudy
 Wind from W
Wind: W 17 mph , 28 km/h
Temperature: 8°C
Wind Chill: 4°C
Dew Point: 3°C
Humidity: 71%
Barometer: 1005 hPa
Clouds: Partly Cloudy
Visibility: 6 miles , 10 km
Cloud details: Partly Cloudy 884 m
Partly Cloudy 1219 m
2020/01/29 12:50 EGXP 291250Z 27015KT 9999 SCT029 SCT040 08/03 Q1005 RMK BLU
EGNJ - Humberside Airport, United Kingdom
Distance from station: E 46mi, 74km
Updated: Wed, 29-Jan-2020 1:20pm GMT
Partly Cloudy
Partly Cloudy
 Wind from WSW
Wind: WSW 17 mph , 28 km/h
Temperature: 8°C
Wind Chill: 4°C
Dew Point: 4°C
Humidity: 76%
Barometer: 1005 hPa
Clouds: Partly Cloudy
Visibility: 6 miles , 10 km
Cloud details: Few Clouds 610 m
Partly Cloudy 884 m
2020/01/29 13:20 EGNJ 291320Z 24015KT 9999 FEW020 SCT029 08/04 Q1005
 
EGXW - Waddington RAF, United Kingdom
Distance from station: ESE 46mi, 74km
Updated: Wed, 29-Jan-2020 1:20pm GMT
Mostly Cloudy
Mostly Cloudy
 Wind from WSW
Wind: WSW 15 mph , 24 km/h
Temperature: 8°C
Wind Chill: 4°C
Dew Point: 2°C
Humidity: 66%
Barometer: 1006 hPa
Clouds: Mostly Cloudy
Visibility: 6 miles , 10 km
Cloud details: Partly Cloudy 975 m
Mostly Cloudy 7620 m
2020/01/29 13:20 EGXW 291320Z 25013KT 9999 SCT032 BKN250 08/02 Q1006 NOSIG RMK BLU BLU
EGXZ - Topcliffe RAF, United Kingdom
Distance from station: N 46mi, 75km
Updated: Wed, 29-Jan-2020 12:50pm GMT
Partly Cloudy
Partly Cloudy
 Wind from WSW
Wind: WSW 16 mph , 26 km/h
Temperature: 8°C
Wind Chill: 4°C
Dew Point: 4°C
Humidity: 76%
Barometer: 1003 hPa
Clouds: Partly Cloudy
Visibility: 6 miles , 10 km
Cloud details: Partly Cloudy 762 m
2020/01/29 12:50 EGXZ 291250Z AUTO 25014KT 9999 SCT025/// 08/04 Q1003
 
EGXV - Leconfield, United Kingdom
Distance from station: ENE 48mi, 77km
Updated: Wed, 29-Jan-2020 12:50pm GMT
Few Clouds
Few Clouds
 Wind from W
Wind: W 14 mph , 22 km/h
Temperature: 8°C
Wind Chill: 4°C
Dew Point: 4°C
Humidity: 76%
Barometer: 1003 hPa
Clouds: Few Clouds
Visibility: 6 miles , 10 km
Cloud details: Few Clouds 1006 m
2020/01/29 12:50 EGXV 291250Z AUTO 26012KT 9999 FEW033/// 08/04 Q1003
EGNX - East Midlands, United Kingdom
Distance from station: S 50mi, 80km
Updated: Wed, 29-Jan-2020 1:20pm GMT
Mostly Cloudy
Mostly Cloudy
 Wind from WSW
Wind: WSW 18 mph , 30 km/h
Temperature: 8°C
Wind Chill: 4°C
Dew Point: 2°C
Humidity: 66%
Barometer: 1007 hPa
Clouds: Mostly Cloudy
Visibility: 6 miles , 10 km
Cloud details: Mostly Cloudy 853 m
2020/01/29 13:20 EGNX 291320Z 24016KT 9999 BKN028 08/02 Q1007

Metar display script from Saratoga-Weather.org

Data updates at regular intervals.